• Join FlightAware (Why Join?)
  • Login
  • US Flag 
01:12AM EST


 

Airport Tracker/Info


-or-


 

Live Flight TrackerFlight Track Log ✈ OPT732 ✈ 2013年 05月 09日 ✈ KTEB - KSRQ

Flight Track Log - Related Links

Times and Time Zones

All times are in EDT time to prevent confusion due to time zone crossing. See the OPT732 flight status page for this flight to view local times or setup timezone preferences in your user account.

Time Position Orientation Groundspeed Altitude Reporting Facility
EDT Latitude Longitude Course Direction KTS MPH feet Rate Location/Type
07:54AM 40.9167 -74.0500 237° Southwest 211 243 2,000  Level New York TRACON
07:55AM 40.9167 -74.1167 270° West 214 246 3,800 1,920 Climbing New York TRACON
07:56AM 40.9000 -74.2167 258° West 271 312 5,900 1,920 Climbing New York TRACON
07:58AM 40.8700 -74.4153 259° West 286 329 9,700 1,980 Climbing New York Center
07:59AM 40.6293 -74.7747 237° Southwest  Level FlightAware Approximate
07:59AM 40.8589 -74.5050 261° West 292 336 12,000  Level New York Center
08:00AM 40.8931 -74.6058 294° West 271 312 12,000  Level New York Center
08:01AM 40.8431 -74.6717 225° Southwest 246 283 12,000 1,320 Level New York Center
08:02AM 40.7731 -74.7664 226° Southwest 315 362 14,700 2,520 Climbing New York Center
08:03AM 40.7103 -74.8419 222° Southwest 342 394 17,200 2,640 Climbing New York Center
08:04AM 40.6317 -74.9411 224° Southwest 352 405 20,000 2,760 Climbing New York Center
08:05AM 40.5553 -75.0350 223° Southwest 363 418 22,700 2,640 Climbing New York Center
08:06AM 40.4869 -75.1425 230° Southwest 374 430 25,400 2,700 Climbing New York Center
08:07AM 40.4158 -75.2581 231° Southwest 399 459 28,100 2,580 Climbing New York Center
08:08AM 40.3425 -75.3758 231° Southwest 412 474 30,600 2,280 Climbing New York Center
08:09AM 40.2647 -75.4958 230° Southwest 417 480 32,800 1,800 Climbing New York Center
08:10AM 40.1847 -75.6206 230° Southwest 440 506 34,300 1,560 Climbing New York Center
08:11AM 40.0903 -75.7336 222° Southwest 448 516 35,900 1,560 Climbing New York Center
08:12AM 39.9958 -75.8489 223° Southwest 463 533 37,400 1,440 Climbing New York Center
08:14AM 39.7728 -76.1181 223° Southwest 462 532 40,900 1,260 Climbing Washington Center
08:15AM 39.6869 -76.2172 222° Southwest 457 526 41,800 720 Climbing Washington Center
08:16AM 39.5947 -76.3294 223° Southwest 457 526 42,400 540 Climbing Washington Center
08:17AM 39.5003 -76.4414 222° Southwest 457 526 43,000 240 Climbing Washington Center
08:18AM 39.4014 -76.5531 221° Southwest 462 532 43,000  Level Washington Center
08:19AM 39.3089 -76.6619 222° Southwest 462 532 43,000  Level Washington Center
08:20AM 39.2033 -76.7861 222° Southwest 462 532 43,000  Level Washington Center
08:21AM 39.1233 -76.8811 223° Southwest 462 532 43,000  Level Washington Center
08:22AM 39.0303 -76.9892 222° Southwest 457 526 43,000  Level Washington Center
08:23AM 38.9394 -77.0942 222° Southwest 452 520 43,000  Level Washington Center
08:24AM 38.8483 -77.2017 223° Southwest 447 514 43,000  Level Washington Center
08:25AM 38.7553 -77.3086 222° Southwest 447 514 43,000  Level Washington Center
08:26AM 38.6642 -77.4131 222° Southwest 447 514 43,000  Level Washington Center
08:27AM 38.5642 -77.5300 222° Southwest 447 514 43,000  Level Washington Center
08:28AM 38.4708 -77.6361 222° Southwest 447 514 43,000  Level Washington Center
08:29AM 38.3772 -77.7422 222° Southwest 447 514 43,000  Level Washington Center
08:30AM 38.2856 -77.8481 222° Southwest 447 514 43,000  Level Washington Center
08:31AM 38.1897 -77.9561 222° Southwest 452 520 43,000  Level Washington Center
08:32AM 38.0936 -78.0639 221° Southwest 452 520 43,000  Level Washington Center
08:33AM 37.9997 -78.1636 220° Southwest 452 520 43,000  Level Washington Center
08:34AM 37.9144 -78.2528 220° Southwest 452 520 43,000  Level Washington Center
08:35AM 37.8078 -78.3517 216° Southwest 457 526 43,000  Level Washington Center
08:36AM 37.7075 -78.4478 217° Southwest 463 533 43,000  Level Washington Center
08:37AM 37.6031 -78.5461 217° Southwest 468 539 43,000  Level Washington Center
08:38AM 37.4878 -78.6514 216° Southwest 468 539 43,000  Level Washington Center
08:39AM 37.3850 -78.7492 217° Southwest 468 539 43,000  Level Washington Center
08:40AM 37.2803 -78.8467 217° Southwest 468 539 43,000  Level Washington Center
08:41AM 37.1775 -78.9414 216° Southwest 468 539 43,000  Level Washington Center
08:42AM 37.0725 -79.0383 216° Southwest 468 539 43,000  Level Washington Center
08:43AM 36.9781 -79.1253 216° Southwest 468 539 43,000  Level Washington Center
08:44AM 36.8753 -79.2192 216° Southwest 468 539 43,000  Level Washington Center
08:45AM 36.7700 -79.3181 217° Southwest 468 539 43,000  Level Washington Center
08:46AM 36.6625 -79.4139 216° Southwest 468 539 43,000  Level Washington Center
08:49AM 36.3586 -79.6894 216° Southwest 469 540 43,000  Level Atlanta Center
08:50AM 36.2536 -79.7853 216° Southwest 474 545 43,000  Level Atlanta Center
08:51AM 36.1464 -79.8811 216° Southwest 485 558 43,000  Level Atlanta Center
08:52AM 36.0267 -79.9794 214° Southwest 478 550 43,000  Level Atlanta Center
08:53AM 35.9056 -80.0419 203° Southwest 471 542 43,000  Level Atlanta Center
08:54AM 35.7825 -80.1044 202° Southwest 501 577 43,000  Level Atlanta Center
08:55AM 35.6839 -80.1550 203° Southwest 501 577 43,000  Level Atlanta Center
08:56AM 35.5483 -80.2228 202° Southwest 487 560 43,000  Level Atlanta Center
08:57AM 35.4272 -80.2869 203° Southwest 487 560 43,000  Level Atlanta Center
08:58AM 35.3039 -80.3461 201° Southwest 480 552 43,000  Level Atlanta Center
09:00AM 35.0750 -80.4578 202° Southwest 469 540 43,000  Level Jacksonville Center
09:01AM 34.9531 -80.5219 203° Southwest 469 540 43,000  Level Jacksonville Center
09:02AM 34.8167 -80.5864 201° Southwest 469 540 43,000  Level Jacksonville Center
09:03AM 34.6969 -80.6478 203° Southwest 469 540 43,000  Level Jacksonville Center
09:04AM 34.5686 -80.7064 201° Southwest 481 554 43,000  Level Jacksonville Center
09:05AM 34.4444 -80.7650 201° Southwest 488 562 43,000  Level Jacksonville Center
09:06AM 34.3142 -80.8336 204° Southwest 487 560 43,000  Level Jacksonville Center
09:07AM 34.1981 -80.8842 200° South 480 552 43,000  Level Jacksonville Center
09:08AM 34.0717 -80.9447 202° Southwest 475 547 43,000  Level Jacksonville Center
09:09AM 33.9494 -81.0025 201° Southwest 475 547 43,000  Level Jacksonville Center
09:10AM 33.8231 -81.0603 201° Southwest 481 554 43,000  Level Jacksonville Center
09:11AM 33.6967 -81.1178 201° Southwest 486 559 43,000  Level Jacksonville Center
09:12AM 33.5722 -81.1750 201° Southwest 491 565 43,000  Level Jacksonville Center
09:13AM 33.4458 -81.2347 202° Southwest 491 565 43,000  Level Jacksonville Center
09:14AM 33.3253 -81.2892 201° Southwest 491 565 43,000  Level Jacksonville Center
09:15AM 33.2031 -81.3458 201° Southwest 486 559 43,000  Level Jacksonville Center
09:16AM 33.0783 -81.4028 201° Southwest 486 559 43,000  Level Jacksonville Center
09:17AM 32.9558 -81.4617 202° Southwest 486 559 43,000  Level Jacksonville Center
09:18AM 32.8333 -81.5181 201° Southwest 481 554 43,000  Level Jacksonville Center
09:19AM 32.7128 -81.5692 200° South 476 548 43,000  Level Jacksonville Center
09:20AM 32.5925 -81.6325 204° Southwest 465 535 43,000  Level Jacksonville Center
09:21AM 32.4822 -81.6833 201° Southwest 475 547 43,000  Level Jacksonville Center
09:22AM 32.3472 -81.7417 200° South 475 547 43,000  Level Jacksonville Center
09:23AM 32.2347 -81.7922 201° Southwest 475 547 43,000  Level Jacksonville Center
09:24AM 32.0975 -81.8308 193° South 470 541 43,000  Level Jacksonville Center
09:25AM 31.9639 -81.8567 189° South 475 547 43,000  Level Jacksonville Center
09:26AM 31.8450 -81.8775 188° South 481 554 43,000  Level Jacksonville Center
09:27AM 31.7014 -81.9061 190° South 481 554 43,000  Level Jacksonville Center
09:28AM 31.5825 -81.9269 188° South 486 559 43,000  Level Jacksonville Center
09:29AM 31.4386 -81.9528 189° South 481 554 43,000  Level Jacksonville Center
09:30AM 31.3072 -81.9831 191° South 481 554 43,000  Level Jacksonville Center
09:31AM 31.1758 -82.0039 188° South 481 554 43,000 -360 Level Jacksonville Center
09:32AM 31.0444 -82.0294 189° South 481 554 42,300 -1,140 Descending Jacksonville Center
09:33AM 30.9069 -82.0547 189° South 486 559 40,800 -1,500 Descending Jacksonville Center
09:34AM 30.7631 -82.0803 189° South 500 575 39,300 -1,380 Descending Jacksonville Center
09:35AM 30.6233 -82.1056 189° South 513 590 38,100 -840 Descending Jacksonville Center
09:36AM 30.4981 -82.1236 187° South 513 590 37,700 -1,020 Descending Jacksonville Center
09:37AM 30.3519 -82.1511 189° South 520 598 36,100 -1,320 Descending Jacksonville Center
09:38AM 30.2103 -82.1764 189° South 525 604 35,100 -1,500 Descending Jacksonville Center
09:39AM 30.0706 -82.2014 189° South 520 598 33,100 -2,100 Descending Jacksonville Center
09:40AM 29.9328 -82.2214 187° South 515 593 31,000 -1,860 Descending Jacksonville Center
09:41AM 29.8011 -82.2128 177° South 494 568 29,400 -1,560 Descending Jacksonville Center
09:42AM 29.6717 -82.1969 174° South 483 556 27,900 -1,500 Descending Jacksonville Center
09:43AM 29.5422 -82.1883 177° South 472 543 26,400 -1,500 Descending Jacksonville Center
09:44AM 29.4189 -82.1772 176° South 462 532 25,000 -840 Descending Jacksonville Center
09:45AM 29.2978 -82.1664 176° South 450 518 24,800 -1,320 Descending Jacksonville Center
09:46AM 29.1664 -82.1553 176° South 450 518 22,400 -2,460 Descending Jacksonville Center
09:47AM 29.0411 -82.1444 176° South 456 525 19,900 -2,400 Descending Jacksonville Center
09:48AM 28.9158 -82.1383 178° South 458 527 17,600 -2,340 Descending Jacksonville Center
09:50AM 28.7333 -82.1167 174° South 379 436 14,000 -2,040 Descending Tampa TRACON
09:51AM 28.6500 -82.1167 180° South 358 412 12,600 -1,080 Descending Tampa TRACON
09:52AM 28.5500 -82.1000 172° South 354 407 12,000 -300 Descending Tampa TRACON
09:53AM 28.4500 -82.0833 172° South 358 412 12,000  Level Tampa TRACON
09:54AM 28.3500 -82.0667 172° South 364 419 12,000 -240 Level Tampa TRACON
09:55AM 28.2333 -82.0500 173° South 362 417 11,500 -780 Descending Tampa TRACON
09:56AM 28.1500 -82.0333 170° South 351 404 10,500 -1,080 Descending Tampa TRACON
09:57AM 28.0667 -82.0500 190° South 289 333 9,500 -1,020 Descending Tampa TRACON
09:58AM 28.0000 -82.1000 214° Southwest 269 310 8,500 -720 Descending Tampa TRACON
09:59AM 27.9333 -82.1333 204° Southwest 268 308 8,000 -720 Descending Tampa TRACON
10:00AM 27.8667 -82.1667 204° Southwest 263 303 7,100 -960 Descending Tampa TRACON
10:01AM 27.8000 -82.2167 214° Southwest 262 302 6,200 -600 Descending Tampa TRACON
10:02AM 27.7500 -82.2500 211° Southwest 237 273 6,000 -120 Descending Tampa TRACON
10:03AM 27.7000 -82.3000 222° Southwest 233 268 6,000  Level Tampa TRACON
10:04AM 27.6667 -82.3667 241° Southwest 223 257 6,000  Level Tampa TRACON
10:05AM 27.6500 -82.4333 254° West 228 262 6,000 -660 Level Tampa TRACON
10:06AM 27.6167 -82.5000 241° Southwest 243 280 4,700 -1,320 Descending Tampa TRACON
10:07AM 27.5667 -82.5667 230° Southwest 268 308 3,300 -1,140 Descending Tampa TRACON
10:08AM 27.5167 -82.6167 222° Southwest 241 277 2,400 -720 Descending Tampa TRACON
10:09AM 27.4500 -82.6167 180° South 205 236 1,900 -960 Descending Tampa TRACON
10:10AM 27.4167 -82.5833 138° Southeast 164 189 500 -1,440 Descending Tampa TRACON
10:12AM 27.3954 -82.5544 160° South  Level Estimated
10:19AM 27.3954 -82.5544 160° South  Level Estimated